createdAt,value
2023-06-17T00:02:04.662Z,15.60
2023-06-17T00:07:08.613Z,15.60
2023-06-17T00:12:13.584Z,15.60
2023-06-17T00:17:17.765Z,15.70
2023-06-17T00:22:21.305Z,15.70
2023-06-17T00:27:24.915Z,15.70
2023-06-17T00:32:29.679Z,15.60
2023-06-17T00:37:34.014Z,15.50
2023-06-17T00:42:37.950Z,15.40
2023-06-17T00:47:42.800Z,15.30
2023-06-17T00:52:47.250Z,15.20
2023-06-17T00:57:52.239Z,15.20
2023-06-17T01:02:57.897Z,15.20
2023-06-17T01:08:32.416Z,15.20
2023-06-17T01:13:36.930Z,15.10
2023-06-17T01:18:41.940Z,15.10
2023-06-17T01:23:54.111Z,15.20
2023-06-17T01:29:01.247Z,15.30
2023-06-17T01:34:06.134Z,15.40
2023-06-17T01:39:14.845Z,15.40
2023-06-17T01:44:20.851Z,15.40
2023-06-17T01:49:24.468Z,15.40
2023-06-17T01:54:28.955Z,15.30
2023-06-17T01:59:32.794Z,15.30
2023-06-17T02:04:36.547Z,15.20
2023-06-17T02:09:40.168Z,15.10
2023-06-17T02:14:43.765Z,15.00
2023-06-17T02:19:47.367Z,14.90
2023-06-17T02:24:50.897Z,14.80
2023-06-17T02:29:54.449Z,14.80
2023-06-17T02:34:58.741Z,14.70
2023-06-17T02:40:02.665Z,14.70
2023-06-17T02:45:08.410Z,14.80
2023-06-17T02:50:12.105Z,14.80
2023-06-17T02:55:16.684Z,14.80
2023-06-17T03:00:22.103Z,14.80
2023-06-17T03:05:25.898Z,14.80
2023-06-17T03:10:29.518Z,14.80
2023-06-17T03:15:33.080Z,14.80
2023-06-17T03:20:39.278Z,14.70
2023-06-17T03:25:44.069Z,14.70
2023-06-17T03:30:47.806Z,14.80
2023-06-17T03:35:51.491Z,14.80
2023-06-17T03:40:55.000Z,14.80
2023-06-17T03:45:58.533Z,14.90
2023-06-17T03:51:03.336Z,15.00
2023-06-17T03:56:07.498Z,15.10
2023-06-17T04:01:14.087Z,15.30
2023-06-17T04:06:18.108Z,15.50
2023-06-17T04:11:21.526Z,15.70
2023-06-17T04:16:24.948Z,15.80
2023-06-17T04:21:29.446Z,16.00
2023-06-17T04:26:33.587Z,16.20
2023-06-17T04:31:41.277Z,16.40
2023-06-17T04:36:44.928Z,16.60
2023-06-17T04:41:48.647Z,16.80
2023-06-17T04:46:52.248Z,17.00
2023-06-17T04:51:57.280Z,17.20
2023-06-17T04:57:01.252Z,17.40
2023-06-17T05:02:05.197Z,17.60
2023-06-17T05:07:09.315Z,17.70
2023-06-17T05:12:12.694Z,17.80
2023-06-17T05:17:16.347Z,18.00
2023-06-17T05:22:20.117Z,18.30
2023-06-17T05:27:24.927Z,18.50
2023-06-17T05:32:28.547Z,18.60
2023-06-17T05:37:33.106Z,18.80
2023-06-17T05:42:37.255Z,18.90
2023-06-17T05:47:40.915Z,19.00
2023-06-17T05:52:46.756Z,18.90
2023-06-17T05:57:52.930Z,18.90
2023-06-17T06:02:58.521Z,19.00
2023-06-17T06:08:02.087Z,19.10
2023-06-17T06:13:06.290Z,19.10
2023-06-17T06:18:09.842Z,19.10
2023-06-17T06:23:13.267Z,19.10
2023-06-17T06:28:16.825Z,19.10
2023-06-17T06:33:20.678Z,19.30
2023-06-17T06:38:24.312Z,19.50
2023-06-17T06:43:27.640Z,19.60
2023-06-17T06:48:31.763Z,19.70
2023-06-17T06:53:35.959Z,19.80
2023-06-17T06:58:39.453Z,20.00
2023-06-17T07:03:43.201Z,20.20
2023-06-17T07:08:46.830Z,20.30
2023-06-17T07:13:50.596Z,20.40
2023-06-17T07:18:54.339Z,20.60
2023-06-17T07:23:57.903Z,20.80
2023-06-17T07:29:02.796Z,20.90
2023-06-17T07:34:06.258Z,20.90
2023-06-17T07:39:09.898Z,21.00
2023-06-17T07:44:13.738Z,21.20
2023-06-17T07:49:17.267Z,21.40
2023-06-17T07:54:20.998Z,21.70
2023-06-17T07:59:24.598Z,21.90
2023-06-17T08:04:28.174Z,22.20
2023-06-17T08:09:31.935Z,22.50
2023-06-17T08:14:35.886Z,22.70
2023-06-17T08:19:39.444Z,22.80
2023-06-17T08:24:43.291Z,23.10
2023-06-17T08:29:46.747Z,23.30
2023-06-17T08:34:50.676Z,23.50
2023-06-17T08:39:54.063Z,23.40
2023-06-17T08:45:04.022Z,23.30
2023-06-17T08:50:08.581Z,23.20
2023-06-17T08:55:12.452Z,23.10
2023-06-17T09:00:16.958Z,23.00
2023-06-17T09:05:20.392Z,23.10
2023-06-17T09:10:24.182Z,23.10
2023-06-17T09:15:27.816Z,23.10
2023-06-17T09:20:33.921Z,23.20
2023-06-17T09:25:37.775Z,23.30
2023-06-17T09:30:43.908Z,23.40
2023-06-17T09:35:48.860Z,23.50
2023-06-17T09:40:53.790Z,23.70
2023-06-17T09:46:01.215Z,23.80
2023-06-17T09:51:10.571Z,23.80
2023-06-17T09:56:15.122Z,23.90
2023-06-17T10:01:18.990Z,24.10
2023-06-17T10:06:24.957Z,24.10
2023-06-17T10:11:30.536Z,24.20
2023-06-17T10:16:39.893Z,24.30
2023-06-17T10:21:47.918Z,24.50
2023-06-17T10:26:53.035Z,24.50
2023-06-17T10:31:56.592Z,24.50
2023-06-17T10:37:02.202Z,24.50
2023-06-17T10:42:14.643Z,24.60
2023-06-17T10:47:23.593Z,24.70
2023-06-17T10:52:31.423Z,24.60
2023-06-17T10:57:37.873Z,24.60
2023-06-17T11:02:41.850Z,24.50
2023-06-17T11:07:45.717Z,24.50
2023-06-17T11:12:51.189Z,24.70
2023-06-17T11:18:04.879Z,24.80
2023-06-17T11:23:08.790Z,25.10
2023-06-17T11:28:13.059Z,25.10
2023-06-17T11:33:21.527Z,25.20
2023-06-17T11:38:25.891Z,25.40
2023-06-17T11:43:30.126Z,25.70
2023-06-17T11:48:37.638Z,25.70
2023-06-17T11:53:41.235Z,25.70
2023-06-17T11:58:46.145Z,25.50
2023-06-17T12:03:49.748Z,25.70
2023-06-17T12:09:07.276Z,25.90
2023-06-17T12:14:13.875Z,26.40
2023-06-17T12:19:25.401Z,26.50
2023-06-17T12:24:29.206Z,26.70
2023-06-17T12:29:32.700Z,26.70
2023-06-17T12:34:36.473Z,26.70
2023-06-17T12:39:40.944Z,26.80
2023-06-17T12:44:45.998Z,26.60
2023-06-17T12:49:50.743Z,26.40
2023-06-17T12:55:02.140Z,26.60
2023-06-17T13:00:07.522Z,26.90
2023-06-17T13:05:11.366Z,27.00
2023-06-17T13:10:14.999Z,26.70
2023-06-17T13:15:18.522Z,26.50
2023-06-17T13:20:23.242Z,26.60
2023-06-17T13:25:27.893Z,26.70
2023-06-17T13:30:31.765Z,27.20
2023-06-17T13:35:35.505Z,27.40
2023-06-17T13:40:39.538Z,27.40
2023-06-17T13:45:43.336Z,27.30
2023-06-17T13:50:50.024Z,27.10
2023-06-17T13:55:53.798Z,27.00
2023-06-17T14:00:57.489Z,26.90
2023-06-17T14:06:01.028Z,26.80
2023-06-17T14:11:04.884Z,26.80
2023-06-17T14:16:09.020Z,26.70
2023-06-17T14:21:33.947Z,26.70
2023-06-17T14:26:40.834Z,26.70
2023-06-17T14:31:45.550Z,26.90
2023-06-17T14:36:49.441Z,27.00
2023-06-17T14:41:53.346Z,27.00
2023-06-17T14:46:57.299Z,26.90
2023-06-17T14:52:01.959Z,26.90
2023-06-17T14:57:06.391Z,27.10
2023-06-17T15:02:49.523Z,27.20
2023-06-17T15:07:53.249Z,27.20
2023-06-17T15:12:56.752Z,27.00
2023-06-17T15:18:00.481Z,26.90
2023-06-17T15:23:04.632Z,27.00
2023-06-17T15:28:08.662Z,27.30
2023-06-17T15:33:12.729Z,27.50
2023-06-17T15:38:19.016Z,27.20
2023-06-17T15:43:23.001Z,26.90
2023-06-17T15:48:26.495Z,26.80
2023-06-17T15:53:30.627Z,26.90
2023-06-17T15:58:34.245Z,27.00
2023-06-17T16:03:39.080Z,27.10
2023-06-17T16:08:43.710Z,27.00
2023-06-17T16:13:50.163Z,26.80
2023-06-17T16:18:56.451Z,26.70
2023-06-17T16:24:00.240Z,26.40
2023-06-17T16:29:05.632Z,26.20
2023-06-17T16:34:09.619Z,26.10
2023-06-17T16:39:13.567Z,25.90
2023-06-17T16:44:17.317Z,25.80
2023-06-17T16:49:22.490Z,25.80
2023-06-17T16:54:26.484Z,25.90
2023-06-17T16:59:30.220Z,26.10
2023-06-17T17:04:34.072Z,26.20
2023-06-17T17:09:40.166Z,26.20
2023-06-17T17:14:45.038Z,26.10
2023-06-17T17:19:49.490Z,25.90
2023-06-17T17:24:55.434Z,25.80
2023-06-17T17:29:59.056Z,25.50
2023-06-17T17:35:03.101Z,25.20
2023-06-17T17:40:07.983Z,24.80
2023-06-17T17:45:11.827Z,24.50
2023-06-17T17:50:15.552Z,24.10
2023-06-17T17:55:19.155Z,23.90
2023-06-17T18:00:24.966Z,23.60
2023-06-17T18:05:28.565Z,23.40
2023-06-17T18:10:32.468Z,23.20
2023-06-17T18:15:36.334Z,23.00
2023-06-17T18:20:40.286Z,22.80
2023-06-17T18:25:44.101Z,22.70
2023-06-17T18:30:47.746Z,22.50
2023-06-17T18:35:51.512Z,22.40
2023-06-17T18:40:55.240Z,22.20
2023-06-17T18:45:58.974Z,22.10
2023-06-17T18:51:03.265Z,21.90
2023-06-17T18:56:06.993Z,21.80
2023-06-17T19:01:10.829Z,21.70
2023-06-17T19:06:14.798Z,21.50
2023-06-17T19:11:18.507Z,21.40
2023-06-17T19:16:22.846Z,21.20
2023-06-17T19:21:26.602Z,21.10
2023-06-17T19:26:30.430Z,21.00
2023-06-17T19:31:34.354Z,20.90
2023-06-17T19:36:38.206Z,20.70
2023-06-17T19:41:41.995Z,20.50
2023-06-17T19:46:46.470Z,20.30
2023-06-17T19:51:52.529Z,20.10
2023-06-17T19:56:56.916Z,20.00
2023-06-17T20:02:01.152Z,19.80
2023-06-17T20:07:05.329Z,19.80
2023-06-17T20:12:09.472Z,19.90
2023-06-17T20:17:13.551Z,19.90
2023-06-17T20:22:17.818Z,20.00
2023-06-17T20:27:21.697Z,20.10
2023-06-17T20:32:25.719Z,20.10
2023-06-17T20:37:29.675Z,20.10
2023-06-17T20:42:33.375Z,20.10
2023-06-17T20:47:46.221Z,20.00
2023-06-17T20:52:53.716Z,20.00
2023-06-17T20:58:02.392Z,19.90
2023-06-17T21:03:06.624Z,19.90
2023-06-17T21:08:10.830Z,19.80
2023-06-17T21:13:14.797Z,19.70
2023-06-17T21:18:18.325Z,19.60
2023-06-17T21:23:21.958Z,19.50
2023-06-17T21:28:25.386Z,19.50
2023-06-17T21:33:28.990Z,19.50
2023-06-17T21:38:32.678Z,19.50
2023-06-17T21:43:36.244Z,19.60
2023-06-17T21:48:43.355Z,19.60
2023-06-17T21:53:46.814Z,19.60
2023-06-17T21:58:50.689Z,19.50
2023-06-17T22:03:54.614Z,19.40
2023-06-17T22:08:58.828Z,19.20
2023-06-17T22:14:02.759Z,19.10
2023-06-17T22:19:06.509Z,19.00
2023-06-17T22:24:12.111Z,18.90
2023-06-17T22:29:15.933Z,18.90
2023-06-17T22:34:19.573Z,18.80
2023-06-17T22:39:23.113Z,18.70
2023-06-17T22:44:26.780Z,18.50
2023-06-17T22:49:30.392Z,18.50
2023-06-17T22:54:34.150Z,18.40
2023-06-17T22:59:37.954Z,18.40
2023-06-17T23:04:43.129Z,18.30
2023-06-17T23:09:46.693Z,18.20
2023-06-17T23:14:50.194Z,18.10
2023-06-17T23:19:54.441Z,17.90
2023-06-17T23:25:02.400Z,17.80
2023-06-17T23:30:09.620Z,17.70
2023-06-17T23:35:13.497Z,17.60
2023-06-17T23:40:17.083Z,17.60
2023-06-17T23:45:39.192Z,17.40
2023-06-17T23:51:00.071Z,17.30
2023-06-17T23:56:04.663Z,17.10
